createdAt,value
2023-04-16T00:00:38.597Z,92623.84
2023-04-16T00:03:05.440Z,92632.69
2023-04-16T00:05:32.040Z,92631.75
2023-04-16T00:07:58.529Z,92625.63
2023-04-16T00:10:25.009Z,92634.00
2023-04-16T00:12:51.451Z,92628.00
2023-04-16T00:15:17.896Z,92632.00
2023-04-16T00:17:44.394Z,92633.81
2023-04-16T00:20:11.510Z,92631.00
2023-04-16T00:22:37.981Z,92627.44
2023-04-16T00:25:04.839Z,92631.41
2023-04-16T00:27:31.260Z,92632.41
2023-04-16T00:29:57.789Z,92636.63
2023-04-16T00:32:24.345Z,92639.78
2023-04-16T00:34:50.923Z,92636.63
2023-04-16T00:37:18.613Z,92639.28
2023-04-16T00:39:45.344Z,92631.88
2023-04-16T00:42:11.846Z,92639.25
2023-04-16T00:44:38.322Z,92644.31
2023-04-16T00:47:07.599Z,92642.06
2023-04-16T00:49:35.529Z,92640.81
2023-04-16T00:52:03.247Z,92643.28
2023-04-16T00:54:31.594Z,92651.22
2023-04-16T00:56:59.599Z,92641.81
2023-04-16T00:59:26.779Z,92648.50
2023-04-16T01:01:53.392Z,92647.94
2023-04-16T01:04:20.225Z,92656.44
2023-04-16T01:06:46.962Z,92652.81
2023-04-16T01:09:14.144Z,92653.41
2023-04-16T01:11:40.663Z,92654.88
2023-04-16T01:14:07.345Z,92645.81
2023-04-16T01:16:33.966Z,92661.44
2023-04-16T01:19:00.467Z,92647.84
2023-04-16T01:21:27.463Z,92654.66
2023-04-16T01:23:53.978Z,92652.97
2023-04-16T01:26:20.440Z,92654.66
2023-04-16T01:28:46.900Z,92656.22
2023-04-16T01:31:13.439Z,92653.63
2023-04-16T01:34:06.452Z,92654.88
2023-04-16T01:36:34.439Z,92654.88
2023-04-16T01:39:00.891Z,92655.22
2023-04-16T01:41:27.327Z,92661.34
2023-04-16T01:43:53.754Z,92659.66
2023-04-16T01:46:29.214Z,92663.75
2023-04-16T01:48:56.436Z,92658.41
2023-04-16T01:51:23.298Z,92666.00
2023-04-16T01:53:51.117Z,92659.66
2023-04-16T01:56:17.588Z,92659.22
2023-04-16T01:58:46.045Z,92663.72
2023-04-16T02:01:13.786Z,92669.03
2023-04-16T02:03:41.138Z,92661.00
2023-04-16T02:06:07.826Z,92662.84
2023-04-16T02:08:35.667Z,92670.88
2023-04-16T02:11:02.228Z,92660.66
2023-04-16T02:13:28.997Z,92669.63
2023-04-16T02:17:07.478Z,92670.41
2023-04-16T02:19:37.091Z,92663.94
2023-04-16T02:22:04.216Z,92666.31
2023-04-16T02:24:30.740Z,92667.03
2023-04-16T02:26:59.172Z,92666.22
2023-04-16T02:29:26.004Z,92661.34
2023-04-16T02:32:01.334Z,92666.22
2023-04-16T02:34:29.525Z,92666.00
2023-04-16T02:36:58.254Z,92669.59
2023-04-16T02:39:25.090Z,92667.22
2023-04-16T02:41:52.868Z,92669.81
2023-04-16T02:44:19.797Z,92664.03
2023-04-16T02:46:47.347Z,92664.50
2023-04-16T02:49:14.000Z,92673.47
2023-04-16T02:51:40.441Z,92671.88
2023-04-16T02:54:06.926Z,92679.25
2023-04-16T02:56:33.402Z,92678.91
2023-04-16T02:58:59.890Z,92678.91
2023-04-16T03:01:28.465Z,92675.53
2023-04-16T03:03:55.114Z,92676.66
2023-04-16T03:06:21.602Z,92680.84
2023-04-16T03:08:48.117Z,92678.13
2023-04-16T03:11:15.125Z,92679.47
2023-04-16T03:13:41.601Z,92680.97
2023-04-16T03:16:08.309Z,92677.59
2023-04-16T03:18:34.797Z,92684.94
2023-04-16T03:21:01.311Z,92681.31
2023-04-16T03:23:28.406Z,92683.09
2023-04-16T03:25:54.959Z,92678.72
2023-04-16T03:28:21.471Z,92676.66
2023-04-16T03:30:52.705Z,92683.91
2023-04-16T03:33:20.619Z,92684.81
2023-04-16T03:35:47.090Z,92682.56
2023-04-16T03:38:14.342Z,92678.47
2023-04-16T03:40:41.419Z,92678.16
2023-04-16T03:43:07.861Z,92678.63
2023-04-16T03:45:34.584Z,92681.09
2023-04-16T03:48:01.143Z,92682.66
2023-04-16T03:50:27.706Z,92686.41
2023-04-16T03:52:54.486Z,92685.28
2023-04-16T03:55:21.021Z,92690.47
2023-04-16T03:57:47.966Z,92687.09
2023-04-16T04:00:16.405Z,92681.22
2023-04-16T04:02:55.954Z,92683.34
2023-04-16T04:05:23.389Z,92685.63
2023-04-16T04:07:50.137Z,92679.19
2023-04-16T04:10:16.871Z,92673.19
2023-04-16T04:12:43.884Z,92681.34
2023-04-16T04:15:11.585Z,92677.38
2023-04-16T04:17:38.153Z,92676.81
2023-04-16T04:20:05.106Z,92680.66
2023-04-16T04:22:31.593Z,92686.88
2023-04-16T04:24:58.070Z,92688.13
2023-04-16T04:27:27.146Z,92685.19
2023-04-16T04:29:53.635Z,92695.81
2023-04-16T04:32:21.417Z,92704.09
2023-04-16T04:34:49.076Z,92703.31
2023-04-16T04:37:15.564Z,92704.53
2023-04-16T04:39:42.034Z,92708.50
2023-04-16T04:42:09.345Z,92719.03
2023-04-16T04:44:35.890Z,92715.88
2023-04-16T04:47:02.346Z,92710.53
2023-04-16T04:49:30.922Z,92705.78
2023-04-16T04:51:57.409Z,92710.88
2023-04-16T04:54:24.023Z,92711.44
2023-04-16T04:56:52.496Z,92711.88
2023-04-16T04:59:20.949Z,92713.81
2023-04-16T05:01:47.654Z,92715.75
2023-04-16T05:04:14.261Z,92716.41
2023-04-16T05:06:40.974Z,92717.66
2023-04-16T05:09:11.627Z,92723.31
2023-04-16T05:11:39.126Z,92726.16
2023-04-16T05:14:05.615Z,92733.72
2023-04-16T05:16:32.151Z,92736.00
2023-04-16T05:18:58.734Z,92734.28
2023-04-16T05:21:26.455Z,92739.06
2023-04-16T05:23:53.378Z,92740.75
2023-04-16T05:26:19.978Z,92744.72
2023-04-16T05:28:46.518Z,92749.47
2023-04-16T05:31:13.019Z,92747.88
2023-04-16T05:33:39.527Z,92749.78
2023-04-16T05:36:06.414Z,92750.38
2023-04-16T05:38:32.898Z,92747.16
2023-04-16T05:40:59.454Z,92752.03
2023-04-16T05:43:26.010Z,92759.66
2023-04-16T05:45:52.484Z,92758.03
2023-04-16T05:48:20.162Z,92769.72
2023-04-16T05:50:46.679Z,92770.06
2023-04-16T05:53:14.204Z,92766.31
2023-04-16T05:55:40.758Z,92765.19
2023-04-16T05:58:07.217Z,92765.75
2023-04-16T06:00:33.771Z,92770.88
2023-04-16T06:03:00.813Z,92769.38
2023-04-16T06:05:27.648Z,92773.69
2023-04-16T06:07:54.310Z,92776.28
2023-04-16T06:10:20.913Z,92781.72
2023-04-16T06:12:47.371Z,92775.50
2023-04-16T06:15:13.910Z,92773.56
2023-04-16T06:17:40.420Z,92777.28
2023-04-16T06:20:07.508Z,92780.25
2023-04-16T06:22:33.978Z,92779.78
2023-04-16T06:25:00.924Z,92777.19
2023-04-16T06:27:27.544Z,92785.13
2023-04-16T06:29:53.977Z,92786.56
2023-04-16T06:32:20.590Z,92787.03
2023-04-16T06:34:47.077Z,92788.41
2023-04-16T06:37:13.543Z,92798.16
2023-04-16T06:39:40.009Z,92793.16
2023-04-16T06:42:06.471Z,92788.72
2023-04-16T06:44:33.086Z,92799.72
2023-04-16T06:46:59.517Z,92795.28
2023-04-16T06:49:25.985Z,92804.00
2023-04-16T06:51:52.457Z,92805.13
2023-04-16T06:54:19.786Z,92805.13
2023-04-16T06:56:46.329Z,92801.28
2023-04-16T06:59:12.787Z,92812.94
2023-04-16T07:01:39.271Z,92814.34
2023-04-16T07:04:05.921Z,92809.69
2023-04-16T07:06:32.499Z,92811.84
2023-04-16T07:08:58.982Z,92807.09
2023-04-16T07:11:26.556Z,92810.38
2023-04-16T07:13:53.876Z,92815.13
2023-04-16T07:16:20.536Z,92813.09
2023-04-16T07:18:47.151Z,92808.56
2023-04-16T07:21:13.574Z,92805.03
2023-04-16T07:23:40.035Z,92811.47
2023-04-16T07:26:06.502Z,92805.59
2023-04-16T07:28:32.940Z,92813.88
2023-04-16T07:30:59.816Z,92811.84
2023-04-16T07:33:26.593Z,92815.91
2023-04-16T07:35:53.129Z,92813.31
2023-04-16T07:38:19.567Z,92819.88
2023-04-16T07:40:46.177Z,92820.66
2023-04-16T07:43:14.026Z,92817.50
2023-04-16T07:45:41.496Z,92819.09
2023-04-16T07:48:08.132Z,92823.47
2023-04-16T07:50:34.629Z,92825.06
2023-04-16T07:53:01.289Z,92831.28
2023-04-16T07:55:27.765Z,92830.63
2023-04-16T07:57:54.229Z,92835.06
2023-04-16T08:00:20.888Z,92833.59
2023-04-16T08:02:47.554Z,92849.91
2023-04-16T08:05:14.212Z,92846.94
2023-04-16T08:07:40.907Z,92852.28
2023-04-16T08:10:08.176Z,92851.13
2023-04-16T08:12:36.152Z,92854.88
2023-04-16T08:15:02.736Z,92853.03
2023-04-16T08:17:30.053Z,92857.34
2023-04-16T08:19:56.739Z,92864.16
2023-04-16T08:22:23.187Z,92864.63
2023-04-16T08:24:49.710Z,92870.50
2023-04-16T08:27:19.589Z,92872.06
2023-04-16T08:29:47.763Z,92876.34
2023-04-16T08:32:14.197Z,92874.59
2023-04-16T08:34:41.938Z,92878.53
2023-04-16T08:37:08.543Z,92876.84
2023-04-16T08:39:35.367Z,92884.09
2023-04-16T08:42:05.145Z,92877.19
2023-04-16T08:44:33.850Z,92883.44
2023-04-16T08:47:02.224Z,92887.06
2023-04-16T08:49:29.499Z,92888.06
2023-04-16T08:51:56.960Z,92885.47
2023-04-16T08:54:34.801Z,92892.47
2023-04-16T08:57:06.345Z,92892.25
2023-04-16T08:59:33.328Z,92892.25
2023-04-16T09:02:00.737Z,92898.38
2023-04-16T09:04:28.769Z,92905.88
2023-04-16T09:06:57.368Z,92908.47
2023-04-16T09:09:28.196Z,92901.78
2023-04-16T09:11:54.765Z,92917.06
2023-04-16T09:14:22.073Z,92905.50
2023-04-16T09:16:49.518Z,92906.06
2023-04-16T09:19:16.176Z,92907.56
2023-04-16T09:21:45.559Z,92912.88
2023-04-16T09:24:12.170Z,92908.22
2023-04-16T09:26:38.807Z,92907.19
2023-04-16T09:29:05.324Z,92904.28
2023-04-16T09:31:31.882Z,92914.56
2023-04-16T09:34:09.116Z,92912.94
2023-04-16T09:36:36.648Z,92914.69
2023-04-16T09:39:04.171Z,92909.03
2023-04-16T09:41:32.664Z,92918.53
2023-04-16T09:44:00.737Z,92913.47
2023-04-16T09:46:30.210Z,92923.81
2023-04-16T09:48:56.827Z,92916.56
2023-04-16T09:51:23.442Z,92922.97
2023-04-16T09:53:53.954Z,92921.44
2023-04-16T09:56:25.921Z,92934.00
2023-04-16T09:58:58.049Z,92937.63
2023-04-16T10:01:24.959Z,92935.72
2023-04-16T10:03:54.678Z,92934.22
2023-04-16T10:06:23.669Z,92939.91
2023-04-16T10:08:52.638Z,92937.03
2023-04-16T10:11:21.170Z,92926.16
2023-04-16T10:13:47.674Z,92940.72
2023-04-16T10:16:14.173Z,92942.38
2023-04-16T10:18:43.249Z,92931.38
2023-04-16T10:21:12.963Z,92936.78
2023-04-16T10:23:40.289Z,92937.34
2023-04-16T10:26:06.991Z,92943.66
2023-04-16T10:28:35.374Z,92945.19
2023-04-16T10:31:05.157Z,92942.75
2023-04-16T10:33:35.686Z,92941.00
2023-04-16T10:36:12.344Z,92948.31
2023-04-16T10:38:52.810Z,92939.75
2023-04-16T10:41:22.632Z,92938.19
2023-04-16T10:43:52.510Z,92941.66
2023-04-16T10:46:33.840Z,92941.50
2023-04-16T10:49:12.102Z,92942.16
2023-04-16T10:51:38.562Z,92944.78
2023-04-16T10:54:20.741Z,92941.16
2023-04-16T10:56:47.812Z,92932.81
2023-04-16T10:59:18.902Z,92943.41
2023-04-16T11:01:52.176Z,92939.69
2023-04-16T11:04:21.930Z,92944.31
2023-04-16T11:07:00.964Z,92943.88
2023-04-16T11:09:47.730Z,92943.53
2023-04-16T11:12:15.427Z,92940.66
2023-04-16T11:14:42.818Z,92948.28
2023-04-16T11:17:10.157Z,92941.13
2023-04-16T11:19:38.066Z,92944.69
2023-04-16T11:22:04.886Z,92952.13
2023-04-16T11:24:32.459Z,92950.22
2023-04-16T11:26:59.097Z,92945.00
2023-04-16T11:29:25.832Z,92947.75
2023-04-16T11:31:53.612Z,92951.09
2023-04-16T11:34:21.015Z,92951.50
2023-04-16T11:36:50.585Z,92955.22
2023-04-16T11:39:17.571Z,92959.97
2023-04-16T11:41:48.499Z,92954.31
2023-04-16T11:44:26.286Z,92959.50
2023-04-16T11:46:54.257Z,92962.81
2023-04-16T11:49:28.226Z,92960.28
2023-04-16T11:51:55.328Z,92958.50
2023-04-16T11:54:23.078Z,92964.75
2023-04-16T11:56:53.115Z,92970.22
2023-04-16T11:59:22.928Z,92969.00
2023-04-16T12:01:55.605Z,92974.69
2023-04-16T12:04:25.198Z,92976.81
2023-04-16T12:07:11.725Z,92973.63
2023-04-16T12:09:41.042Z,92973.53
2023-04-16T12:12:30.495Z,92971.56
2023-04-16T12:14:59.486Z,92979.06
2023-04-16T12:17:26.147Z,92974.19
2023-04-16T12:19:56.998Z,92980.66
2023-04-16T12:22:31.697Z,92978.72
2023-04-16T12:24:59.161Z,92981.88
2023-04-16T12:27:28.652Z,92983.22
2023-04-16T12:30:07.203Z,92988.78
2023-04-16T12:32:33.772Z,92992.63
2023-04-16T12:35:00.361Z,92994.56
2023-04-16T12:37:27.277Z,92993.97
2023-04-16T12:39:54.267Z,92998.03
2023-04-16T12:42:21.347Z,92987.63
2023-04-16T12:44:47.801Z,93000.44
2023-04-16T12:47:14.251Z,92986.03
2023-04-16T12:49:40.870Z,92991.41
2023-04-16T12:52:07.352Z,92989.00
2023-04-16T12:54:34.060Z,92993.03
2023-04-16T12:57:00.571Z,92996.31
2023-04-16T12:59:26.984Z,92992.56
2023-04-16T13:01:53.521Z,92996.66
2023-04-16T13:04:21.089Z,93001.41
2023-04-16T13:06:49.153Z,92993.97
2023-04-16T13:09:15.630Z,92996.16
2023-04-16T13:11:42.110Z,92988.81
2023-04-16T13:14:08.561Z,92993.63
2023-04-16T13:16:35.031Z,92993.09
2023-04-16T13:19:01.673Z,92988.81
2023-04-16T13:21:28.233Z,92991.53
2023-04-16T13:23:54.721Z,92988.81
2023-04-16T13:26:22.041Z,92991.50
2023-04-16T13:28:48.576Z,92997.03
2023-04-16T13:31:15.976Z,92992.19
2023-04-16T13:33:42.524Z,92994.34
2023-04-16T13:36:09.014Z,92994.13
2023-04-16T13:38:35.983Z,92988.72
2023-04-16T13:41:02.525Z,92995.16
2023-04-16T13:43:29.026Z,92997.91
2023-04-16T13:45:55.872Z,92994.34
2023-04-16T13:48:22.352Z,92992.00
2023-04-16T13:50:48.825Z,92996.47
2023-04-16T13:53:15.274Z,92996.69
2023-04-16T13:55:42.650Z,92996.16
2023-04-16T13:58:09.262Z,92992.88
2023-04-16T14:00:35.976Z,92995.28
2023-04-16T14:03:02.566Z,92992.22
2023-04-16T14:05:29.045Z,92991.88
2023-04-16T14:07:55.678Z,92989.16
2023-04-16T14:10:22.161Z,92993.69
2023-04-16T14:12:48.736Z,92989.84
2023-04-16T14:15:15.227Z,92988.00
2023-04-16T14:17:45.323Z,92984.72
2023-04-16T14:20:12.933Z,92987.50
2023-04-16T14:22:39.885Z,92984.13
2023-04-16T14:25:07.173Z,92991.25
2023-04-16T14:27:34.211Z,92990.88
2023-04-16T14:30:00.967Z,92985.88
2023-04-16T14:32:27.488Z,92990.78
2023-04-16T14:34:54.121Z,92995.09
2023-04-16T14:37:20.628Z,92996.66
2023-04-16T14:39:47.138Z,92991.47
2023-04-16T14:42:13.608Z,92989.38
2023-04-16T14:44:40.059Z,92988.00
2023-04-16T14:47:06.818Z,92987.41
2023-04-16T14:49:33.371Z,92996.38
2023-04-16T14:52:02.543Z,92994.44
2023-04-16T14:54:29.121Z,92993.19
2023-04-16T14:56:56.651Z,92990.03
2023-04-16T14:59:23.088Z,92997.38
2023-04-16T15:01:50.966Z,92997.66
2023-04-16T15:04:17.785Z,92993.13
2023-04-16T15:06:46.459Z,92995.41
2023-04-16T15:09:13.229Z,92994.41
2023-04-16T15:11:39.750Z,93000.06
2023-04-16T15:14:06.892Z,93001.75
2023-04-16T15:16:33.472Z,93003.22
2023-04-16T15:19:00.055Z,93007.31
2023-04-16T15:21:27.866Z,93006.19
2023-04-16T15:23:54.323Z,93011.88
2023-04-16T15:26:20.799Z,93010.63
2023-04-16T15:28:47.266Z,93008.34
2023-04-16T15:31:13.814Z,93013.75
2023-04-16T15:33:40.482Z,93017.41
2023-04-16T15:36:07.102Z,93010.06
2023-04-16T15:38:33.538Z,93014.50
2023-04-16T15:41:00.684Z,93012.09
2023-04-16T15:43:28.949Z,93016.06
2023-04-16T15:45:57.182Z,93009.97
2023-04-16T15:48:24.400Z,93016.19
2023-04-16T15:50:51.956Z,93013.91
2023-04-16T15:53:18.481Z,93018.53
2023-04-16T15:55:45.353Z,93013.09
2023-04-16T15:58:12.952Z,93018.09
2023-04-16T16:00:39.484Z,93021.59
2023-04-16T16:03:06.150Z,93013.91
2023-04-16T16:05:32.863Z,93010.41
2023-04-16T16:07:59.614Z,93020.38
2023-04-16T16:10:26.117Z,93014.81
2023-04-16T16:12:52.727Z,93017.75
2023-04-16T16:15:19.315Z,93013.66
2023-04-16T16:17:45.853Z,93022.88
2023-04-16T16:20:12.774Z,93021.72
2023-04-16T16:22:40.165Z,93029.00
2023-04-16T16:25:07.221Z,93022.09
2023-04-16T16:27:33.748Z,93027.97
2023-04-16T16:30:01.066Z,93023.66
2023-04-16T16:32:27.608Z,93024.47
2023-04-16T16:34:54.075Z,93029.13
2023-04-16T16:37:20.716Z,93027.41
2023-04-16T16:39:47.179Z,93028.09
2023-04-16T16:42:16.599Z,93020.94
2023-04-16T16:44:43.031Z,93025.13
2023-04-16T16:47:09.862Z,93021.03
2023-04-16T16:49:36.314Z,93019.66
2023-04-16T16:52:02.759Z,93028.06
2023-04-16T16:54:29.198Z,93028.41
2023-04-16T16:56:56.662Z,93032.03
2023-04-16T16:59:23.171Z,93031.22
2023-04-16T17:01:49.705Z,93029.09
2023-04-16T17:04:17.845Z,93025.09
2023-04-16T17:06:46.724Z,93030.69
2023-04-16T17:09:13.519Z,93036.81
2023-04-16T17:11:40.356Z,93034.44
2023-04-16T17:14:06.885Z,93034.53
2023-04-16T17:16:33.503Z,93032.16
2023-04-16T17:19:01.260Z,93033.44
2023-04-16T17:21:27.902Z,93033.91
2023-04-16T17:23:54.645Z,93040.34
2023-04-16T17:26:21.189Z,93035.38
2023-04-16T17:28:47.675Z,93036.97
2023-04-16T17:31:15.444Z,93039.56
2023-04-16T17:33:41.933Z,93043.63
2023-04-16T17:36:08.455Z,93043.88
2023-04-16T17:38:34.919Z,93042.16
2023-04-16T17:41:01.378Z,93044.66
2023-04-16T17:43:28.456Z,93048.41
2023-04-16T17:45:55.012Z,93044.91
2023-04-16T17:48:21.563Z,93049.66
2023-04-16T17:50:48.558Z,93040.72
2023-04-16T17:53:15.640Z,93055.75
2023-04-16T17:55:50.665Z,93050.78
2023-04-16T17:58:17.641Z,93048.97
2023-04-16T18:00:45.774Z,93053.50
2023-04-16T18:03:13.930Z,93055.44
2023-04-16T18:05:41.328Z,93053.19
2023-04-16T18:08:07.814Z,93052.59
2023-04-16T18:10:34.316Z,93050.44
2023-04-16T18:13:00.964Z,93058.38
2023-04-16T18:15:27.576Z,93061.44
2023-04-16T18:17:54.328Z,93058.81
2023-04-16T18:20:21.163Z,93062.59
2023-04-16T18:22:47.635Z,93065.53
2023-04-16T18:25:14.476Z,93064.84
2023-04-16T18:27:40.942Z,93062.91
2023-04-16T18:30:07.998Z,93070.28
2023-04-16T18:32:35.367Z,93068.94
2023-04-16T18:35:01.934Z,93075.41
2023-04-16T18:37:28.476Z,93072.56
2023-04-16T18:39:57.392Z,93069.16
2023-04-16T18:42:24.684Z,93066.66
2023-04-16T18:44:55.099Z,93076.16
2023-04-16T18:47:21.831Z,93076.16
2023-04-16T18:49:48.279Z,93079.13
2023-04-16T18:52:14.876Z,93077.22
2023-04-16T18:54:41.480Z,93079.84
2023-04-16T18:57:07.936Z,93086.63
2023-04-16T18:59:34.400Z,93088.31
2023-04-16T19:02:00.934Z,93090.69
2023-04-16T19:04:27.510Z,93080.72
2023-04-16T19:06:54.091Z,93077.91
2023-04-16T19:09:20.653Z,93086.19
2023-04-16T19:11:48.489Z,93086.28
2023-04-16T19:14:14.954Z,93085.16
2023-04-16T19:16:41.704Z,93087.88
2023-04-16T19:19:08.338Z,93089.34
2023-04-16T19:21:35.502Z,93092.28
2023-04-16T19:24:01.978Z,93092.41
2023-04-16T19:26:28.450Z,93089.34
2023-04-16T19:28:54.968Z,93088.13
2023-04-16T19:31:21.481Z,93096.63
2023-04-16T19:33:48.015Z,93086.63
2023-04-16T19:36:14.605Z,93094.13
2023-04-16T19:38:41.144Z,93094.69
2023-04-16T19:41:07.601Z,93093.56
2023-04-16T19:43:35.377Z,93098.97
2023-04-16T19:46:01.952Z,93096.50
2023-04-16T19:48:28.761Z,93101.50
2023-04-16T19:50:55.357Z,93098.09
2023-04-16T19:53:21.942Z,93107.16
2023-04-16T19:55:48.445Z,93107.16
2023-04-16T19:58:15.032Z,93105.13
2023-04-16T20:00:42.048Z,93109.31
2023-04-16T20:03:08.916Z,93103.22
2023-04-16T20:05:35.590Z,93106.03
2023-04-16T20:08:02.099Z,93111.13
2023-04-16T20:10:29.347Z,93101.84
2023-04-16T20:12:55.942Z,93112.03
2023-04-16T20:15:22.434Z,93112.16
2023-04-16T20:17:49.489Z,93109.00
2023-04-16T20:20:16.564Z,93105.22
2023-04-16T20:22:43.719Z,93103.19
2023-04-16T20:25:10.562Z,93106.03
2023-04-16T20:27:37.179Z,93107.16
2023-04-16T20:30:05.411Z,93095.13
2023-04-16T20:32:31.900Z,93094.78
2023-04-16T20:34:58.366Z,93100.34
2023-04-16T20:37:24.865Z,93100.00
2023-04-16T20:39:54.139Z,93097.50
2023-04-16T20:42:21.962Z,93093.44
2023-04-16T20:44:56.468Z,93096.94
2023-04-16T20:47:23.713Z,93093.34
2023-04-16T20:49:50.612Z,93087.88
2023-04-16T20:52:17.124Z,93092.28
2023-04-16T20:54:44.275Z,93091.06
2023-04-16T20:57:10.805Z,93093.00
2023-04-16T20:59:37.290Z,93088.91
2023-04-16T21:02:04.031Z,93086.28
2023-04-16T21:04:31.034Z,93084.34
2023-04-16T21:06:57.627Z,93081.84
2023-04-16T21:09:24.310Z,93075.50
2023-04-16T21:11:50.774Z,93081.53
2023-04-16T21:14:17.256Z,93075.28
2023-04-16T21:16:43.810Z,93076.97
2023-04-16T21:19:10.691Z,93076.63
2023-04-16T21:21:38.256Z,93075.63
2023-04-16T21:24:05.036Z,93083.13
2023-04-16T21:26:31.517Z,93067.09
2023-04-16T21:28:57.993Z,93067.09
2023-04-16T21:31:24.614Z,93074.38
2023-04-16T21:33:51.118Z,93072.88
2023-04-16T21:36:17.566Z,93072.22
2023-04-16T21:38:44.132Z,93071.41
2023-04-16T21:41:10.824Z,93079.69
2023-04-16T21:43:37.284Z,93069.41
2023-04-16T21:46:03.893Z,93069.97
2023-04-16T21:48:30.364Z,93072.88
2023-04-16T21:51:06.314Z,93076.63
2023-04-16T21:53:33.320Z,93072.22
2023-04-16T21:55:59.832Z,93074.81
2023-04-16T21:58:26.362Z,93072.84
2023-04-16T22:00:52.943Z,93060.06
2023-04-16T22:03:19.745Z,93065.97
2023-04-16T22:05:46.331Z,93062.91
2023-04-16T22:08:23.974Z,93061.44
2023-04-16T22:10:51.385Z,93055.44
2023-04-16T22:13:18.178Z,93065.88
2023-04-16T22:15:44.659Z,93060.00
2023-04-16T22:18:11.476Z,93063.16
2023-04-16T22:20:39.236Z,93056.91
2023-04-16T22:23:06.751Z,93056.56
2023-04-16T22:25:33.473Z,93057.59
2023-04-16T22:28:01.424Z,93049.31
2023-04-16T22:30:27.942Z,93048.06
2023-04-16T22:32:54.527Z,93054.88
2023-04-16T22:35:21.052Z,93051.25
2023-04-16T22:37:47.533Z,93050.22
2023-04-16T22:40:14.843Z,93050.53
2023-04-16T22:42:41.456Z,93045.78
2023-04-16T22:45:08.820Z,93043.75
2023-04-16T22:47:35.413Z,93047.94
2023-04-16T22:50:01.946Z,93043.31
2023-04-16T22:52:28.692Z,93041.72
2023-04-16T22:54:55.180Z,93044.91
2023-04-16T22:57:24.766Z,93039.34
2023-04-16T22:59:52.361Z,93038.53
2023-04-16T23:02:19.510Z,93036.94
2023-04-16T23:04:49.034Z,93043.31
2023-04-16T23:07:16.194Z,93041.28
2023-04-16T23:09:42.669Z,93036.63
2023-04-16T23:12:09.175Z,93039.44
2023-04-16T23:14:36.858Z,93041.72
2023-04-16T23:17:03.619Z,93040.91
2023-04-16T23:19:31.179Z,93032.97
2023-04-16T23:21:57.877Z,93041.84
2023-04-16T23:24:24.434Z,93037.41
2023-04-16T23:26:52.394Z,93037.03
2023-04-16T23:29:20.250Z,93037.75
2023-04-16T23:31:46.804Z,93034.47
2023-04-16T23:34:13.348Z,93034.47
2023-04-16T23:36:40.659Z,93030.69
2023-04-16T23:39:07.149Z,93029.00
2023-04-16T23:41:33.612Z,93033.09
2023-04-16T23:44:00.122Z,93029.91
2023-04-16T23:46:26.644Z,93035.91
2023-04-16T23:48:55.223Z,93028.31
2023-04-16T23:51:22.001Z,93029.53
2023-04-16T23:53:48.476Z,93025.13
2023-04-16T23:56:15.918Z,93029.47
2023-04-16T23:58:42.364Z,93020.63
